Affton, Missouri
Current Conditions -  °F | °C
As of 2:53 AM on Tuesday 21 Oct 2014 (Local Time) from KCPS Reporting Station
Clear Clear  
Wind Chill: 45°   Ceiling: Unl
Heat Index: 47°   Visibility: 10mi
Dew Point: 45°   Wind: 5mph
Humidity: 93%   Direction: 240°WSW
Pressure: 30.03"   Gusts: NA
Location:  38.55°N, 90.33°W
Report Text: KCPS 210753Z AUTO 24004KT 10SM CLR 08/07 A3003 RMK AO2 SLP169 T00830072
Loading
Personal Weather Stations






























Interactive Weather Map
Tropical Storm Tracking
New forecast layout! Learn more

10-Day Weather Forecast

Advertisements
Track Severe Weather on mobile